DLH2A EDDF-EDDH
Flight info
| Callsign | DLH2A |
|---|---|
| Flight time | 0h 51m |
| Altitude | 31000 |
| Route | MARUN3W/25C MARUN Y150 TOLGI DCT SAS/N0441F300 P605 NOLGO NOLGO6A |
| Aircraft | A21N/M-SDE2E3FGHIRWXY/LB1 |
Departure
| Time | 2026-05-07 18:03 |
|---|---|
| Airport | Frankfurt Main Airport (EDDF) |
Arrival
| Time | 2026-05-07 18:55 |
|---|---|
| Airport | Hamburg Helmut Schmidt Airport (EDDH) |
| Time | Latitude | Longitude | Altitude | Speed | Heading |
|---|---|---|---|---|---|
| 2026-05-07 17:10 | 50.04636 | 8.56666 | 361 ft | 0 kts | 115° |
| 2026-05-07 17:12 | 50.04637 | 8.56664 | 361 ft | 0 kts | 115° |
| 2026-05-07 17:38 | 50.04637 | 8.56663 | 361 ft | 1 kts | 115° |
| 2026-05-07 17:38 | 50.04647 | 8.56629 | 364 ft | 4 kts | 113° |
| 2026-05-07 17:38 | 50.04658 | 8.56591 | 368 ft | 4 kts | 116° |
| 2026-05-07 17:38 | 50.04671 | 8.56559 | 366 ft | 5 kts | 141° |
| 2026-05-07 17:39 | 50.04691 | 8.56547 | 366 ft | 5 kts | 195° |
| 2026-05-07 17:39 | 50.04713 | 8.56568 | 365 ft | 5 kts | 229° |
| 2026-05-07 17:39 | 50.04725 | 8.56594 | 363 ft | 5 kts | 234° |
| 2026-05-07 17:39 | 50.04742 | 8.56626 | 365 ft | 5 kts | 226° |
| 2026-05-07 17:40 | 50.04762 | 8.56654 | 366 ft | 5 kts | 216° |
| 2026-05-07 17:40 | 50.04783 | 8.56675 | 365 ft | 3 kts | 205° |
| 2026-05-07 17:40 | 50.04784 | 8.56675 | 365 ft | 2 kts | 205° |
| 2026-05-07 17:41 | 50.04783 | 8.56674 | 365 ft | 0 kts | 204° |
| 2026-05-07 17:48 | 50.04773 | 8.56667 | 366 ft | 1 kts | 208° |
| 2026-05-07 17:48 | 50.04752 | 8.56644 | 368 ft | 4 kts | 218° |
| 2026-05-07 17:48 | 50.04751 | 8.56643 | 368 ft | 0 kts | 221° |
| 2026-05-07 17:50 | 50.04744 | 8.56634 | 365 ft | 2 kts | 222° |
| 2026-05-07 17:50 | 50.04715 | 8.56579 | 365 ft | 15 kts | 234° |
| 2026-05-07 17:50 | 50.04665 | 8.56431 | 363 ft | 16 kts | 251° |
| 2026-05-07 17:50 | 50.04624 | 8.56258 | 365 ft | 17 kts | 246° |
| 2026-05-07 17:51 | 50.04592 | 8.56139 | 365 ft | 18 kts | 249° |
| 2026-05-07 17:51 | 50.04560 | 8.55993 | 361 ft | 7 kts | 243° |
| 2026-05-07 17:51 | 50.04552 | 8.55972 | 366 ft | 0 kts | 238° |
| 2026-05-07 17:51 | 50.04551 | 8.55970 | 366 ft | 0 kts | 238° |
| 2026-05-07 17:52 | 50.04533 | 8.55932 | 361 ft | 2 kts | 226° |
| 2026-05-07 17:52 | 50.04522 | 8.55918 | 364 ft | 1 kts | 214° |
| 2026-05-07 17:52 | 50.04517 | 8.55913 | 363 ft | 0 kts | 212° |
| 2026-05-07 17:52 | 50.04506 | 8.55904 | 366 ft | 4 kts | 207° |
| 2026-05-07 17:53 | 50.04490 | 8.55894 | 365 ft | 3 kts | 194° |
| 2026-05-07 17:53 | 50.04468 | 8.55892 | 364 ft | 1 kts | 170° |
| 2026-05-07 17:53 | 50.04433 | 8.55916 | 367 ft | 8 kts | 147° |
| 2026-05-07 17:53 | 50.04414 | 8.55933 | 366 ft | 0 kts | 151° |
| 2026-05-07 17:54 | 50.04389 | 8.55946 | 362 ft | 5 kts | 172° |
| 2026-05-07 17:54 | 50.04335 | 8.55949 | 361 ft | 14 kts | 177° |
| 2026-05-07 17:54 | 50.04245 | 8.55939 | 359 ft | 16 kts | 192° |
| 2026-05-07 17:54 | 50.04165 | 8.55928 | 358 ft | 1 kts | 175° |
| 2026-05-07 17:55 | 50.04116 | 8.55944 | 358 ft | 13 kts | 164° |
| 2026-05-07 17:55 | 50.04084 | 8.55971 | 361 ft | 1 kts | 139° |
| 2026-05-07 17:55 | 50.04071 | 8.55995 | 359 ft | 6 kts | 124° |
| 2026-05-07 17:55 | 50.04062 | 8.56027 | 363 ft | 2 kts | 107° |
| 2026-05-07 17:56 | 50.04062 | 8.56071 | 356 ft | 7 kts | 84° |
| 2026-05-07 17:56 | 50.04117 | 8.56252 | 359 ft | 23 kts | 57° |
| 2026-05-07 17:56 | 50.04171 | 8.56449 | 363 ft | 21 kts | 72° |
| 2026-05-07 17:56 | 50.04222 | 8.56681 | 364 ft | 24 kts | 70° |
| 2026-05-07 17:57 | 50.04285 | 8.56942 | 368 ft | 27 kts | 70° |
| 2026-05-07 17:57 | 50.04327 | 8.57123 | 371 ft | 25 kts | 69° |
| 2026-05-07 17:57 | 50.04412 | 8.57475 | 368 ft | 25 kts | 70° |
| 2026-05-07 17:57 | 50.04463 | 8.57685 | 373 ft | 20 kts | 70° |
| 2026-05-07 17:58 | 50.04499 | 8.57833 | 372 ft | 7 kts | 68° |
| 2026-05-07 17:58 | 50.04521 | 8.57921 | 369 ft | 10 kts | 70° |
| 2026-05-07 17:58 | 50.04546 | 8.58034 | 373 ft | 12 kts | 71° |
| 2026-05-07 17:58 | 50.04549 | 8.58044 | 370 ft | 0 kts | 71° |
| 2026-05-07 17:59 | 50.04550 | 8.58050 | 370 ft | 2 kts | 71° |
| 2026-05-07 17:59 | 50.04573 | 8.58146 | 374 ft | 20 kts | 69° |
| 2026-05-07 18:00 | 50.04624 | 8.58355 | 374 ft | 21 kts | 69° |
| 2026-05-07 18:00 | 50.04654 | 8.58490 | 374 ft | 1 kts | 78° |
| 2026-05-07 18:00 | 50.04655 | 8.58504 | 374 ft | 3 kts | 92° |
| 2026-05-07 18:00 | 50.04637 | 8.58552 | 374 ft | 9 kts | 132° |
| 2026-05-07 18:01 | 50.04549 | 8.58617 | 376 ft | 17 kts | 165° |
| 2026-05-07 18:01 | 50.04482 | 8.58566 | 376 ft | 0 kts | 253° |
| 2026-05-07 18:01 | 50.04482 | 8.58564 | 376 ft | 0 kts | 249° |
| 2026-05-07 18:02 | 50.04467 | 8.58494 | 375 ft | 22 kts | 275° |
| 2026-05-07 18:02 | 50.04411 | 8.58258 | 374 ft | 51 kts | 246° |
| 2026-05-07 18:02 | 50.04195 | 8.57382 | 373 ft | 120 kts | 251° |
| 2026-05-07 18:03 | 50.03836 | 8.55865 | 360 ft | 175 kts | 249° |
| 2026-05-07 18:03 | 50.03376 | 8.54082 | 902 ft | 176 kts | 250° |
| 2026-05-07 18:03 | 50.02954 | 8.52298 | 1606 ft | 178 kts | 252° |
| 2026-05-07 18:03 | 50.02512 | 8.50435 | 2172 ft | 190 kts | 245° |
| 2026-05-07 18:04 | 50.01600 | 8.48761 | 2501 ft | 218 kts | 216° |
| 2026-05-07 18:04 | 50.00158 | 8.47808 | 3048 ft | 236 kts | 192° |
| 2026-05-07 18:04 | 49.98532 | 8.47464 | 4008 ft | 232 kts | 187° |
| 2026-05-07 18:04 | 49.96956 | 8.47189 | 5063 ft | 223 kts | 188° |
| 2026-05-07 18:05 | 49.95468 | 8.46772 | 5947 ft | 222 kts | 196° |
| 2026-05-07 18:05 | 49.93970 | 8.46119 | 6391 ft | 242 kts | 198° |
| 2026-05-07 18:05 | 49.92343 | 8.45338 | 6973 ft | 252 kts | 204° |
| 2026-05-07 18:05 | 49.90985 | 8.43692 | 7656 ft | 251 kts | 238° |
| 2026-05-07 18:06 | 49.90410 | 8.41253 | 8430 ft | 250 kts | 266° |
| 2026-05-07 18:06 | 49.90614 | 8.38583 | 9220 ft | 253 kts | 291° |
| 2026-05-07 18:06 | 49.91582 | 8.36316 | 9985 ft | 257 kts | 317° |
| 2026-05-07 18:06 | 49.93062 | 8.34930 | 10682 ft | 262 kts | 336° |
| 2026-05-07 18:07 | 49.94839 | 8.33868 | 11037 ft | 285 kts | 338° |
| 2026-05-07 18:07 | 49.96747 | 8.32755 | 11339 ft | 307 kts | 338° |
| 2026-05-07 18:07 | 49.98779 | 8.31520 | 11618 ft | 329 kts | 337° |
| 2026-05-07 18:07 | 50.00937 | 8.30164 | 11900 ft | 349 kts | 336° |
| 2026-05-07 18:08 | 50.03296 | 8.28905 | 12166 ft | 369 kts | 346° |
| 2026-05-07 18:08 | 50.05902 | 8.28614 | 12512 ft | 385 kts | 4° |
| 2026-05-07 18:08 | 50.08536 | 8.29552 | 13095 ft | 392 kts | 17° |
| 2026-05-07 18:08 | 50.11132 | 8.30938 | 13718 ft | 396 kts | 18° |
| 2026-05-07 18:09 | 50.13746 | 8.32369 | 14269 ft | 400 kts | 18° |
| 2026-05-07 18:09 | 50.16383 | 8.33794 | 14796 ft | 403 kts | 17° |
| 2026-05-07 18:09 | 50.18969 | 8.35511 | 15309 ft | 408 kts | 28° |
| 2026-05-07 18:09 | 50.21389 | 8.37873 | 15832 ft | 411 kts | 32° |
| 2026-05-07 18:10 | 50.23787 | 8.40321 | 16346 ft | 414 kts | 32° |
| 2026-05-07 18:10 | 50.26080 | 8.42632 | 16801 ft | 417 kts | 31° |
| 2026-05-07 18:10 | 50.28451 | 8.44987 | 17249 ft | 420 kts | 31° |
| 2026-05-07 18:10 | 50.30960 | 8.47463 | 17743 ft | 423 kts | 31° |
| 2026-05-07 18:11 | 50.33463 | 8.49930 | 18214 ft | 426 kts | 31° |
| 2026-05-07 18:11 | 50.35122 | 8.51567 | 18513 ft | 427 kts | 31° |
| 2026-05-07 18:11 | 50.38496 | 8.54905 | 19066 ft | 430 kts | 31° |
| 2026-05-07 18:11 | 50.41034 | 8.57420 | 19472 ft | 433 kts | 31° |
| 2026-05-07 18:12 | 50.43584 | 8.59954 | 19885 ft | 435 kts | 31° |
| 2026-05-07 18:12 | 50.46149 | 8.62502 | 20281 ft | 437 kts | 31° |
| 2026-05-07 18:12 | 50.48691 | 8.65026 | 20684 ft | 439 kts | 31° |
| 2026-05-07 18:12 | 50.51277 | 8.67598 | 21080 ft | 442 kts | 31° |
| 2026-05-07 18:13 | 50.53877 | 8.70189 | 21483 ft | 444 kts | 31° |
| 2026-05-07 18:13 | 50.56498 | 8.72805 | 21901 ft | 447 kts | 31° |
| 2026-05-07 18:13 | 50.59125 | 8.75433 | 22323 ft | 449 kts | 31° |
| 2026-05-07 18:13 | 50.61772 | 8.78085 | 22744 ft | 452 kts | 31° |
| 2026-05-07 18:14 | 50.64432 | 8.80751 | 23176 ft | 455 kts | 31° |
| 2026-05-07 18:14 | 50.67110 | 8.83437 | 23613 ft | 457 kts | 31° |
| 2026-05-07 18:14 | 50.69799 | 8.86138 | 24008 ft | 460 kts | 31° |
| 2026-05-07 18:14 | 50.72504 | 8.88862 | 24401 ft | 462 kts | 31° |
| 2026-05-07 18:15 | 50.75167 | 8.91552 | 24786 ft | 464 kts | 31° |
| 2026-05-07 18:15 | 50.77892 | 8.94307 | 25166 ft | 466 kts | 31° |
| 2026-05-07 18:15 | 50.80622 | 8.97064 | 25609 ft | 466 kts | 31° |
| 2026-05-07 18:15 | 50.83350 | 8.99811 | 26089 ft | 465 kts | 31° |
| 2026-05-07 18:16 | 50.86076 | 9.02547 | 26569 ft | 464 kts | 31° |
| 2026-05-07 18:16 | 50.88794 | 9.05265 | 27065 ft | 462 kts | 31° |
| 2026-05-07 18:16 | 50.91519 | 9.07982 | 27568 ft | 460 kts | 31° |
| 2026-05-07 18:16 | 50.94224 | 9.10670 | 28068 ft | 458 kts | 31° |
| 2026-05-07 18:17 | 50.96921 | 9.13342 | 28599 ft | 456 kts | 31° |
| 2026-05-07 18:17 | 50.99573 | 9.15960 | 29114 ft | 453 kts | 31° |
| 2026-05-07 18:17 | 51.02276 | 9.18620 | 29658 ft | 451 kts | 31° |
| 2026-05-07 18:17 | 51.04900 | 9.21194 | 30199 ft | 448 kts | 30° |
| 2026-05-07 18:18 | 51.07544 | 9.23779 | 30651 ft | 445 kts | 30° |
| 2026-05-07 18:18 | 51.10167 | 9.26334 | 31123 ft | 441 kts | 30° |
| 2026-05-07 18:18 | 51.12778 | 9.28864 | 31582 ft | 439 kts | 30° |
| 2026-05-07 18:18 | 51.15497 | 9.31120 | 31245 ft | 445 kts | 26° |
| 2026-05-07 18:19 | 51.18256 | 9.33498 | 31061 ft | 458 kts | 28° |
| 2026-05-07 18:19 | 51.23927 | 9.38391 | 31064 ft | 456 kts | 22° |
| 2026-05-07 18:20 | 51.29823 | 9.41429 | 31077 ft | 446 kts | 15° |
| 2026-05-07 18:20 | 51.35770 | 9.44251 | 31082 ft | 446 kts | 15° |
| 2026-05-07 18:21 | 51.41718 | 9.47129 | 31084 ft | 446 kts | 16° |
| 2026-05-07 18:21 | 51.47644 | 9.50021 | 31081 ft | 446 kts | 16° |
| 2026-05-07 18:22 | 51.53584 | 9.52920 | 31084 ft | 446 kts | 16° |
| 2026-05-07 18:22 | 51.59475 | 9.55805 | 31090 ft | 446 kts | 16° |
| 2026-05-07 18:23 | 51.65414 | 9.58718 | 31089 ft | 446 kts | 16° |
| 2026-05-07 18:23 | 51.71359 | 9.61641 | 31100 ft | 447 kts | 16° |
| 2026-05-07 18:24 | 51.77300 | 9.64572 | 31102 ft | 447 kts | 16° |
| 2026-05-07 18:24 | 51.83244 | 9.67506 | 31107 ft | 447 kts | 16° |
| 2026-05-07 18:25 | 51.89153 | 9.70435 | 31109 ft | 447 kts | 16° |
| 2026-05-07 18:25 | 51.95100 | 9.73395 | 31108 ft | 447 kts | 16° |
| 2026-05-07 18:26 | 52.01043 | 9.76351 | 31110 ft | 447 kts | 16° |
| 2026-05-07 18:26 | 52.06985 | 9.79322 | 31110 ft | 446 kts | 16° |
| 2026-05-07 18:27 | 52.12926 | 9.82300 | 31110 ft | 447 kts | 16° |
| 2026-05-07 18:27 | 52.15844 | 9.83769 | 30941 ft | 440 kts | 16° |
| 2026-05-07 18:27 | 52.18776 | 9.85246 | 30065 ft | 443 kts | 16° |
| 2026-05-07 18:27 | 52.20730 | 9.86230 | 29274 ft | 447 kts | 16° |
| 2026-05-07 18:28 | 52.24750 | 9.88182 | 27723 ft | 453 kts | 12° |
| 2026-05-07 18:28 | 52.27868 | 9.89040 | 26639 ft | 457 kts | 6° |
| 2026-05-07 18:28 | 52.31051 | 9.89737 | 25837 ft | 465 kts | 6° |
| 2026-05-07 18:28 | 52.34259 | 9.90440 | 25402 ft | 463 kts | 6° |
| 2026-05-07 18:29 | 52.37454 | 9.91122 | 25209 ft | 463 kts | 6° |
| 2026-05-07 18:29 | 52.40646 | 9.91804 | 25132 ft | 463 kts | 6° |
| 2026-05-07 18:29 | 52.43837 | 9.92492 | 25109 ft | 463 kts | 6° |
| 2026-05-07 18:29 | 52.46999 | 9.93179 | 25106 ft | 463 kts | 6° |
| 2026-05-07 18:30 | 52.50189 | 9.93878 | 25108 ft | 463 kts | 6° |
| 2026-05-07 18:30 | 52.53383 | 9.94578 | 25111 ft | 463 kts | 6° |
| 2026-05-07 18:30 | 52.56577 | 9.95273 | 25113 ft | 463 kts | 6° |
| 2026-05-07 18:30 | 52.59784 | 9.95974 | 25115 ft | 463 kts | 6° |
| 2026-05-07 18:31 | 52.62977 | 9.96674 | 25114 ft | 463 kts | 6° |
| 2026-05-07 18:31 | 52.66169 | 9.97376 | 25113 ft | 463 kts | 6° |
| 2026-05-07 18:31 | 52.69361 | 9.98078 | 25112 ft | 463 kts | 6° |
| 2026-05-07 18:31 | 52.72551 | 9.98779 | 25112 ft | 463 kts | 6° |
| 2026-05-07 18:32 | 52.75746 | 9.99485 | 25112 ft | 463 kts | 6° |
| 2026-05-07 18:32 | 52.78937 | 10.00192 | 25112 ft | 463 kts | 6° |
| 2026-05-07 18:32 | 52.82087 | 10.00891 | 25113 ft | 463 kts | 6° |
| 2026-05-07 18:32 | 52.85281 | 10.01607 | 25116 ft | 463 kts | 6° |
| 2026-05-07 18:33 | 52.88444 | 10.02319 | 24981 ft | 454 kts | 6° |
| 2026-05-07 18:33 | 52.91599 | 10.03024 | 24294 ft | 457 kts | 6° |
| 2026-05-07 18:33 | 52.94734 | 10.03718 | 23583 ft | 453 kts | 6° |
| 2026-05-07 18:33 | 52.97848 | 10.04407 | 22752 ft | 449 kts | 6° |
| 2026-05-07 18:34 | 53.00829 | 10.05078 | 21458 ft | 450 kts | 7° |
| 2026-05-07 18:34 | 53.03947 | 10.05772 | 21193 ft | 451 kts | 6° |
| 2026-05-07 18:34 | 53.07047 | 10.06460 | 20430 ft | 446 kts | 7° |
| 2026-05-07 18:34 | 53.10063 | 10.07134 | 19688 ft | 441 kts | 7° |
| 2026-05-07 18:35 | 53.13076 | 10.07833 | 18966 ft | 435 kts | 7° |
| 2026-05-07 18:35 | 53.16099 | 10.08518 | 18208 ft | 430 kts | 7° |
| 2026-05-07 18:35 | 53.19007 | 10.09189 | 17325 ft | 428 kts | 9° |
| 2026-05-07 18:35 | 53.21862 | 10.10584 | 16416 ft | 427 kts | 22° |
| 2026-05-07 18:36 | 53.24438 | 10.13047 | 15539 ft | 427 kts | 36° |
| 2026-05-07 18:36 | 53.26717 | 10.16236 | 14692 ft | 430 kts | 41° |
| 2026-05-07 18:36 | 53.28918 | 10.19669 | 13962 ft | 435 kts | 43° |
| 2026-05-07 18:36 | 53.31110 | 10.23109 | 13685 ft | 428 kts | 43° |
| 2026-05-07 18:37 | 53.33268 | 10.26543 | 13096 ft | 428 kts | 43° |
| 2026-05-07 18:37 | 53.35386 | 10.29937 | 12542 ft | 426 kts | 43° |
| 2026-05-07 18:37 | 53.37545 | 10.33352 | 11959 ft | 417 kts | 43° |
| 2026-05-07 18:37 | 53.39616 | 10.36589 | 11406 ft | 407 kts | 43° |
| 2026-05-07 18:38 | 53.41633 | 10.39788 | 10789 ft | 393 kts | 43° |
| 2026-05-07 18:38 | 53.43587 | 10.42904 | 10006 ft | 383 kts | 44° |
| 2026-05-07 18:38 | 53.45484 | 10.45928 | 9408 ft | 368 kts | 44° |
| 2026-05-07 18:38 | 53.47290 | 10.48809 | 9045 ft | 349 kts | 44° |
| 2026-05-07 18:39 | 53.49002 | 10.51538 | 8760 ft | 330 kts | 44° |
| 2026-05-07 18:39 | 53.50626 | 10.54127 | 8460 ft | 314 kts | 44° |
| 2026-05-07 18:39 | 53.52175 | 10.56594 | 8085 ft | 300 kts | 43° |
| 2026-05-07 18:39 | 53.53873 | 10.58451 | 7693 ft | 287 kts | 20° |
| 2026-05-07 18:40 | 53.55791 | 10.58971 | 7305 ft | 278 kts | 356° |
| 2026-05-07 18:40 | 53.57642 | 10.58113 | 7005 ft | 278 kts | 334° |
| 2026-05-07 18:40 | 53.59093 | 10.56035 | 7084 ft | 282 kts | 306° |
| 2026-05-07 18:40 | 53.59850 | 10.52998 | 7164 ft | 280 kts | 282° |
| 2026-05-07 18:41 | 53.59819 | 10.49751 | 7168 ft | 283 kts | 259° |
| 2026-05-07 18:41 | 53.59336 | 10.46568 | 7156 ft | 281 kts | 254° |
| 2026-05-07 18:41 | 53.58783 | 10.43419 | 7119 ft | 278 kts | 254° |
| 2026-05-07 18:41 | 53.58227 | 10.40309 | 6720 ft | 278 kts | 253° |
| 2026-05-07 18:42 | 53.57679 | 10.37190 | 6296 ft | 279 kts | 253° |
| 2026-05-07 18:42 | 53.57139 | 10.34047 | 5857 ft | 279 kts | 253° |
| 2026-05-07 18:42 | 53.56606 | 10.30919 | 5495 ft | 278 kts | 253° |
| 2026-05-07 18:42 | 53.56082 | 10.27796 | 5132 ft | 276 kts | 253° |
| 2026-05-07 18:43 | 53.55570 | 10.24747 | 4981 ft | 275 kts | 253° |
| 2026-05-07 18:43 | 53.55052 | 10.21659 | 4969 ft | 274 kts | 253° |
| 2026-05-07 18:43 | 53.54528 | 10.18571 | 4982 ft | 274 kts | 253° |
| 2026-05-07 18:43 | 53.54037 | 10.15691 | 4989 ft | 274 kts | 253° |
| 2026-05-07 18:44 | 53.53512 | 10.12604 | 4993 ft | 275 kts | 253° |
| 2026-05-07 18:44 | 53.52989 | 10.09528 | 4993 ft | 275 kts | 253° |
| 2026-05-07 18:44 | 53.52303 | 10.06547 | 4989 ft | 274 kts | 239° |
| 2026-05-07 18:44 | 53.51265 | 10.03873 | 4998 ft | 273 kts | 234° |
| 2026-05-07 18:45 | 53.50171 | 10.01256 | 4995 ft | 273 kts | 233° |
| 2026-05-07 18:45 | 53.49074 | 9.98654 | 4994 ft | 273 kts | 233° |
| 2026-05-07 18:45 | 53.47988 | 9.96080 | 4994 ft | 273 kts | 233° |
| 2026-05-07 18:45 | 53.46893 | 9.93483 | 4970 ft | 270 kts | 233° |
| 2026-05-07 18:46 | 53.45813 | 9.90921 | 4591 ft | 269 kts | 233° |
| 2026-05-07 18:46 | 53.44734 | 9.88358 | 4189 ft | 270 kts | 233° |
| 2026-05-07 18:46 | 53.43656 | 9.85797 | 4001 ft | 264 kts | 233° |
| 2026-05-07 18:46 | 53.42627 | 9.83351 | 3956 ft | 249 kts | 233° |
| 2026-05-07 18:47 | 53.41658 | 9.81043 | 3966 ft | 239 kts | 233° |
| 2026-05-07 18:47 | 53.40733 | 9.78830 | 3953 ft | 227 kts | 236° |
| 2026-05-07 18:47 | 53.40201 | 9.76380 | 3673 ft | 221 kts | 267° |
| 2026-05-07 18:47 | 53.40474 | 9.73931 | 3308 ft | 217 kts | 299° |
| 2026-05-07 18:48 | 53.41360 | 9.71927 | 3036 ft | 214 kts | 315° |
| 2026-05-07 18:48 | 53.42618 | 9.70706 | 2981 ft | 209 kts | 347° |
| 2026-05-07 18:48 | 53.44043 | 9.70258 | 2993 ft | 208 kts | 353° |
| 2026-05-07 18:48 | 53.45474 | 9.70019 | 2977 ft | 206 kts | 8° |
| 2026-05-07 18:49 | 53.46829 | 9.70687 | 2993 ft | 203 kts | 23° |
| 2026-05-07 18:49 | 53.48083 | 9.71482 | 3005 ft | 181 kts | 23° |
| 2026-05-07 18:49 | 53.49205 | 9.72188 | 3022 ft | 172 kts | 23° |
| 2026-05-07 18:49 | 53.50236 | 9.73148 | 3007 ft | 169 kts | 42° |
| 2026-05-07 18:50 | 53.51048 | 9.74571 | 3005 ft | 168 kts | 51° |
| 2026-05-07 18:50 | 53.51785 | 9.76061 | 3000 ft | 169 kts | 52° |
| 2026-05-07 18:50 | 53.52514 | 9.77530 | 2938 ft | 164 kts | 52° |
| 2026-05-07 18:50 | 53.53222 | 9.78959 | 2761 ft | 157 kts | 52° |
| 2026-05-07 18:51 | 53.53919 | 9.80367 | 2562 ft | 157 kts | 52° |
| 2026-05-07 18:51 | 53.54618 | 9.81779 | 2357 ft | 156 kts | 52° |
| 2026-05-07 18:51 | 53.55310 | 9.83174 | 2131 ft | 154 kts | 52° |
| 2026-05-07 18:51 | 53.55948 | 9.84462 | 1866 ft | 134 kts | 54° |
| 2026-05-07 18:52 | 53.56530 | 9.85669 | 1743 ft | 133 kts | 53° |
| 2026-05-07 18:52 | 53.57126 | 9.86828 | 1553 ft | 132 kts | 54° |
| 2026-05-07 18:52 | 53.57690 | 9.88007 | 1393 ft | 132 kts | 52° |
| 2026-05-07 18:52 | 53.58280 | 9.89195 | 1213 ft | 132 kts | 53° |
| 2026-05-07 18:53 | 53.58861 | 9.90373 | 1040 ft | 129 kts | 53° |
| 2026-05-07 18:53 | 53.59431 | 9.91524 | 837 ft | 127 kts | 52° |
| 2026-05-07 18:53 | 53.59997 | 9.92669 | 683 ft | 127 kts | 52° |
| 2026-05-07 18:53 | 53.60562 | 9.93819 | 528 ft | 128 kts | 51° |
| 2026-05-07 18:54 | 53.61132 | 9.94973 | 379 ft | 128 kts | 52° |
| 2026-05-07 18:54 | 53.61695 | 9.96110 | 212 ft | 126 kts | 51° |
| 2026-05-07 18:54 | 53.62246 | 9.97247 | 61 ft | 120 kts | 46° |
| 2026-05-07 18:54 | 53.62705 | 9.98159 | 56 ft | 79 kts | 48° |
| 2026-05-07 18:55 | 53.62918 | 9.98561 | 54 ft | 38 kts | 47° |
| 2026-05-07 18:55 | 53.63021 | 9.98804 | 53 ft | 1 kts | 31° |
| 2026-05-07 18:55 | 53.63035 | 9.98823 | 54 ft | 5 kts | 41° |
| 2026-05-07 18:55 | 53.63079 | 9.98982 | 56 ft | 19 kts | 79° |
| 2026-05-07 18:56 | 53.63085 | 9.99146 | 56 ft | 9 kts | 88° |
| 2026-05-07 18:56 | 53.63085 | 9.99182 | 56 ft | 10 kts | 88° |